createdAt,value
2022-10-01T00:02:10.720Z,98485.80
2022-10-01T00:04:43.951Z,98485.23
2022-10-01T00:07:15.503Z,98486.60
2022-10-01T00:09:44.757Z,98492.83
2022-10-01T00:12:16.243Z,98492.08
2022-10-01T00:14:45.620Z,98491.22
2022-10-01T00:17:14.209Z,98489.11
2022-10-01T00:19:42.844Z,98483.92
2022-10-01T00:22:14.031Z,98485.26
2022-10-01T00:24:43.125Z,98489.21
2022-10-01T00:27:13.218Z,98491.83
2022-10-01T00:29:45.700Z,98494.36
2022-10-01T00:32:15.292Z,98498.98
2022-10-01T00:34:45.332Z,98498.41
2022-10-01T00:37:14.690Z,98497.10
2022-10-01T00:39:43.166Z,98502.80
2022-10-01T00:42:19.590Z,98497.92
2022-10-01T00:44:49.582Z,98498.39
2022-10-01T00:47:53.756Z,98497.02
2022-10-01T00:50:34.008Z,98499.98
2022-10-01T00:53:12.794Z,98506.63
2022-10-01T00:55:49.088Z,98510.33
2022-10-01T00:58:20.143Z,98507.97
2022-10-01T01:00:50.548Z,98506.79
2022-10-01T01:03:19.789Z,98511.46
2022-10-01T01:05:51.264Z,98505.75
2022-10-01T01:08:19.871Z,98509.58
2022-10-01T01:11:08.781Z,98504.04
2022-10-01T01:13:58.202Z,98503.48
2022-10-01T01:16:40.519Z,98501.94
2022-10-01T01:19:08.916Z,98502.27
2022-10-01T01:21:45.452Z,98494.63
2022-10-01T01:24:26.072Z,98496.48
2022-10-01T01:27:14.322Z,98491.20
2022-10-01T01:29:48.011Z,98487.80
2022-10-01T01:32:33.562Z,98489.01
2022-10-01T01:35:07.340Z,98487.35
2022-10-01T01:37:42.976Z,98488.96
2022-10-01T01:40:15.330Z,98483.85
2022-10-01T01:42:46.786Z,98475.89
2022-10-01T01:45:20.601Z,98474.67
2022-10-01T01:47:56.621Z,98468.95
2022-10-01T01:50:29.329Z,98468.92
2022-10-01T01:53:01.021Z,98467.31
2022-10-01T01:55:32.631Z,98461.21
2022-10-01T01:58:02.407Z,98468.05
2022-10-01T02:00:31.053Z,98463.08
2022-10-01T02:03:00.251Z,98460.46
2022-10-01T02:05:38.158Z,98462.52
2022-10-01T02:08:31.954Z,98460.70
2022-10-01T02:11:17.719Z,98460.73
2022-10-01T02:14:03.821Z,98453.08
2022-10-01T02:16:48.801Z,98445.80
2022-10-01T02:19:52.711Z,98442.11
2022-10-01T02:22:29.548Z,98439.95
2022-10-01T02:25:02.250Z,98433.72
2022-10-01T02:27:45.799Z,98436.83
2022-10-01T02:30:15.658Z,98444.77
2022-10-01T02:32:48.128Z,98440.05
2022-10-01T02:35:19.717Z,98442.26
2022-10-01T02:37:53.257Z,98441.40
2022-10-01T02:40:27.435Z,98439.19
2022-10-01T02:43:03.534Z,98447.52
2022-10-01T02:45:37.174Z,98437.64
2022-10-01T02:48:10.647Z,98432.43
2022-10-01T02:50:49.331Z,98437.13
2022-10-01T02:53:35.239Z,98442.70
2022-10-01T02:56:06.228Z,98439.60
2022-10-01T02:58:36.930Z,98440.27
2022-10-01T03:01:06.681Z,98435.23
2022-10-01T03:03:35.447Z,98436.97
2022-10-01T03:06:04.549Z,98434.20
2022-10-01T03:08:33.540Z,98427.77
2022-10-01T03:11:02.467Z,98431.04
2022-10-01T03:13:32.262Z,98424.32
2022-10-01T03:16:01.243Z,98430.01
2022-10-01T03:18:30.989Z,98418.55
2022-10-01T03:20:59.799Z,98419.02
2022-10-01T03:23:28.739Z,98423.19
2022-10-01T03:25:57.358Z,98412.95
2022-10-01T03:28:26.767Z,98414.83
2022-10-01T03:31:09.382Z,98405.23
2022-10-01T03:33:40.166Z,98412.46
2022-10-01T03:36:09.042Z,98411.41
2022-10-01T03:38:38.157Z,98416.02
2022-10-01T03:41:07.646Z,98407.20
2022-10-01T03:43:36.435Z,98416.24
2022-10-01T03:46:05.070Z,98416.23
2022-10-01T03:48:34.229Z,98406.02
2022-10-01T03:51:03.257Z,98400.34
2022-10-01T03:53:32.214Z,98402.92
2022-10-01T03:56:03.400Z,98404.31
2022-10-01T03:58:32.112Z,98398.58
2022-10-01T04:01:01.728Z,98395.31
2022-10-01T04:03:31.511Z,98396.21
2022-10-01T04:06:00.234Z,98394.63
2022-10-01T04:08:29.788Z,98389.96
2022-10-01T04:10:59.536Z,98388.89
2022-10-01T04:13:30.307Z,98389.39
2022-10-01T04:16:01.987Z,98386.61
2022-10-01T04:18:31.362Z,98383.50
2022-10-01T04:21:00.333Z,98377.13
2022-10-01T04:23:30.922Z,98383.80
2022-10-01T04:26:03.283Z,98381.05
2022-10-01T04:28:32.827Z,98383.82
2022-10-01T04:31:20.133Z,98383.49
2022-10-01T04:33:49.479Z,98385.58
2022-10-01T04:36:18.679Z,98389.52
2022-10-01T04:38:48.404Z,98389.54
2022-10-01T04:41:17.895Z,98383.27
2022-10-01T04:43:47.262Z,98380.51
2022-10-01T04:46:17.719Z,98377.41
2022-10-01T04:48:49.533Z,98374.98
2022-10-01T04:51:19.983Z,98384.35
2022-10-01T04:53:49.170Z,98379.52
2022-10-01T04:56:18.893Z,98371.89
2022-10-01T04:58:49.142Z,98374.46
2022-10-01T05:01:18.423Z,98373.44
2022-10-01T05:03:48.507Z,98379.72
2022-10-01T05:06:17.662Z,98375.07
2022-10-01T05:08:49.253Z,98371.27
2022-10-01T05:11:19.246Z,98372.52
2022-10-01T05:13:48.466Z,98376.31
2022-10-01T05:16:17.225Z,98366.56
2022-10-01T05:18:46.207Z,98369.70
2022-10-01T05:21:15.998Z,98362.92
2022-10-01T05:23:45.378Z,98370.41
2022-10-01T05:26:19.109Z,98370.76
2022-10-01T05:28:49.334Z,98364.70
2022-10-01T05:31:19.397Z,98366.83
2022-10-01T05:33:49.243Z,98367.27
2022-10-01T05:36:18.291Z,98367.52
2022-10-01T05:38:49.457Z,98372.23
2022-10-01T05:41:18.858Z,98368.29
2022-10-01T05:43:51.981Z,98370.40
2022-10-01T05:46:23.092Z,98367.86
2022-10-01T05:48:52.947Z,98363.04
2022-10-01T05:51:25.874Z,98370.02
2022-10-01T05:53:55.465Z,98368.55
2022-10-01T05:56:24.596Z,98369.30
2022-10-01T05:58:53.189Z,98367.77
2022-10-01T06:01:22.679Z,98365.90
2022-10-01T06:03:52.868Z,98371.14
2022-10-01T06:06:26.763Z,98373.06
2022-10-01T06:08:55.481Z,98360.58
2022-10-01T06:11:24.645Z,98368.40
2022-10-01T06:13:53.703Z,98367.12
2022-10-01T06:16:22.656Z,98370.83
2022-10-01T06:18:57.871Z,98365.09
2022-10-01T06:21:28.154Z,98360.79
2022-10-01T06:23:57.309Z,98362.27
2022-10-01T06:26:27.113Z,98366.05
2022-10-01T06:28:56.928Z,98365.29
2022-10-01T06:31:25.789Z,98364.73
2022-10-01T06:33:55.246Z,98365.50
2022-10-01T06:36:24.490Z,98362.98
2022-10-01T06:38:53.133Z,98357.39
2022-10-01T06:41:22.020Z,98357.80
2022-10-01T06:43:50.957Z,98358.67
2022-10-01T06:46:20.093Z,98360.46
2022-10-01T06:48:49.559Z,98363.88
2022-10-01T06:51:38.176Z,98364.17
2022-10-01T06:54:07.076Z,98365.91
2022-10-01T06:56:36.787Z,98372.50
2022-10-01T06:59:05.312Z,98376.23
2022-10-01T07:01:34.423Z,98370.83
2022-10-01T07:04:04.517Z,98369.54
2022-10-01T07:06:33.003Z,98364.05
2022-10-01T07:09:01.933Z,98359.39
2022-10-01T07:11:30.757Z,98354.93
2022-10-01T07:14:01.756Z,98356.76
2022-10-01T07:16:31.200Z,98360.16
2022-10-01T07:19:00.407Z,98360.41
2022-10-01T07:21:29.000Z,98353.36
2022-10-01T07:23:57.679Z,98350.04
2022-10-01T07:26:26.569Z,98342.04
2022-10-01T07:28:55.514Z,98345.29
2022-10-01T07:31:24.945Z,98342.25
2022-10-01T07:33:58.857Z,98334.33
2022-10-01T07:36:27.616Z,98341.91
2022-10-01T07:38:56.472Z,98341.17
2022-10-01T07:41:25.267Z,98334.74
2022-10-01T07:43:53.883Z,98332.95
2022-10-01T07:46:22.862Z,98331.12
2022-10-01T07:48:51.553Z,98335.67
2022-10-01T07:51:28.930Z,98338.39
2022-10-01T07:53:59.468Z,98336.55
2022-10-01T07:56:27.945Z,98337.21
2022-10-01T07:58:57.930Z,98331.23
2022-10-01T08:01:26.724Z,98327.88
2022-10-01T08:03:56.098Z,98330.67
2022-10-01T08:06:25.823Z,98325.92
2022-10-01T08:08:54.741Z,98322.73
2022-10-01T08:11:24.962Z,98315.11
2022-10-01T08:13:56.460Z,98312.03
2022-10-01T08:16:29.355Z,98304.54
2022-10-01T08:18:58.533Z,98303.60
2022-10-01T08:21:28.918Z,98300.18
2022-10-01T08:23:57.441Z,98298.76
2022-10-01T08:26:26.028Z,98299.80
2022-10-01T08:28:54.763Z,98300.02
2022-10-01T08:31:23.610Z,98289.29
2022-10-01T08:33:52.834Z,98292.67
2022-10-01T08:36:22.510Z,98285.05
2022-10-01T08:38:50.955Z,98283.02
2022-10-01T08:41:25.985Z,98277.84
2022-10-01T08:43:55.058Z,98268.50
2022-10-01T08:46:30.097Z,98272.22
2022-10-01T08:49:16.841Z,98267.98
2022-10-01T08:52:04.071Z,98268.06
2022-10-01T08:54:41.398Z,98264.73
2022-10-01T08:57:17.432Z,98264.38
2022-10-01T08:59:51.576Z,98260.95
2022-10-01T09:02:25.691Z,98256.77
2022-10-01T09:05:03.578Z,98245.70
2022-10-01T09:07:37.833Z,98245.19
2022-10-01T09:10:36.118Z,98246.34
2022-10-01T09:13:34.984Z,98242.17
2022-10-01T09:16:19.086Z,98238.52
2022-10-01T09:18:59.384Z,98232.48
2022-10-01T09:22:03.638Z,98226.92
2022-10-01T09:24:41.028Z,98220.23
2022-10-01T09:27:18.431Z,98216.59
2022-10-01T09:29:52.655Z,98213.63
2022-10-01T09:32:26.537Z,98211.36
2022-10-01T09:34:55.443Z,98197.65
2022-10-01T09:37:51.360Z,98184.90
2022-10-01T09:40:41.055Z,98195.16
2022-10-01T09:43:10.643Z,98195.45
2022-10-01T09:45:39.707Z,98196.21
2022-10-01T09:48:44.080Z,98189.48
2022-10-01T09:51:35.767Z,98197.05
2022-10-01T09:54:19.692Z,98189.42
2022-10-01T09:57:15.200Z,98192.02
2022-10-01T09:59:56.366Z,98187.79
2022-10-01T10:02:36.436Z,98180.14
2022-10-01T10:05:08.569Z,98184.25
2022-10-01T10:07:38.758Z,98185.23
2022-10-01T10:10:12.601Z,98179.17
2022-10-01T10:12:43.685Z,98177.37
2022-10-01T10:15:22.943Z,98186.96
2022-10-01T10:17:52.733Z,98179.01
2022-10-01T10:20:28.617Z,98180.40
2022-10-01T10:23:16.074Z,98172.34
2022-10-01T10:25:54.233Z,98168.20
2022-10-01T10:28:24.631Z,98163.20
2022-10-01T10:30:55.236Z,98161.55
2022-10-01T10:33:26.863Z,98153.38
2022-10-01T10:36:02.884Z,98155.27
2022-10-01T10:38:36.321Z,98151.56
2022-10-01T10:41:06.871Z,98153.55
2022-10-01T10:43:38.382Z,98150.53
2022-10-01T10:46:08.885Z,98142.61
2022-10-01T10:48:45.646Z,98142.17
2022-10-01T10:51:14.639Z,98142.73
2022-10-01T10:53:45.706Z,98142.66
2022-10-01T10:56:23.389Z,98143.13
2022-10-01T10:58:52.956Z,98136.82
2022-10-01T11:01:30.198Z,98135.23
2022-10-01T11:04:01.466Z,98128.06
2022-10-01T11:06:30.747Z,98124.17
2022-10-01T11:09:09.779Z,98117.07
2022-10-01T11:11:50.697Z,98115.78
2022-10-01T11:14:51.739Z,98116.77
2022-10-01T11:17:20.292Z,98122.35
2022-10-01T11:20:00.691Z,98114.15
2022-10-01T11:22:47.104Z,98114.42
2022-10-01T11:25:24.368Z,98106.23
2022-10-01T11:28:15.626Z,98102.02
2022-10-01T11:30:44.271Z,98094.99
2022-10-01T11:33:33.556Z,98094.10
2022-10-01T11:36:45.383Z,98087.76
2022-10-01T11:39:20.880Z,98087.64
2022-10-01T11:42:00.863Z,98083.03
2022-10-01T11:45:02.676Z,98088.48
2022-10-01T11:47:44.665Z,98079.48
2022-10-01T11:50:27.058Z,98076.02
2022-10-01T11:52:55.771Z,98078.23
2022-10-01T11:55:53.961Z,98073.04
2022-10-01T11:58:54.430Z,98070.52
2022-10-01T12:01:35.615Z,98068.46
2022-10-01T12:04:13.396Z,98066.91
2022-10-01T12:06:56.760Z,98054.64
2022-10-01T12:10:03.375Z,98048.08
2022-10-01T12:12:47.123Z,98047.30
2022-10-01T12:15:29.602Z,98035.73
2022-10-01T12:18:07.128Z,98027.67
2022-10-01T12:20:44.876Z,98023.64
2022-10-01T12:23:29.205Z,98017.00
2022-10-01T12:26:07.699Z,98005.77
2022-10-01T12:28:52.079Z,98007.54
2022-10-01T12:31:33.863Z,98011.64
2022-10-01T12:34:17.194Z,98010.48
2022-10-01T12:36:57.715Z,98001.02
2022-10-01T12:39:36.443Z,98007.86
2022-10-01T12:42:05.521Z,98002.45
2022-10-01T12:45:13.210Z,98000.79
2022-10-01T12:48:16.774Z,97995.52
2022-10-01T12:51:03.911Z,97995.00
2022-10-01T12:54:11.572Z,97999.09
2022-10-01T12:56:54.974Z,97995.84
2022-10-01T12:59:45.043Z,97995.57
2022-10-01T13:02:24.512Z,97996.39
2022-10-01T13:05:24.307Z,97989.77
2022-10-01T13:07:52.953Z,97983.12
2022-10-01T13:10:52.455Z,97983.16
2022-10-01T13:13:33.783Z,97980.95
2022-10-01T13:16:31.391Z,97980.13
2022-10-01T13:18:59.978Z,97973.00
2022-10-01T13:21:32.747Z,97970.28
2022-10-01T13:24:01.203Z,97966.44
2022-10-01T13:26:49.089Z,97970.90
2022-10-01T13:29:28.304Z,97962.55
2022-10-01T13:32:01.513Z,97963.23
2022-10-01T13:34:46.394Z,97958.26
2022-10-01T13:37:19.523Z,97955.77
2022-10-01T13:39:48.795Z,97956.23
2022-10-01T13:42:23.656Z,97964.27
2022-10-01T13:44:58.644Z,97961.22
2022-10-01T13:47:29.198Z,97962.00
2022-10-01T13:50:04.369Z,97963.80
2022-10-01T13:52:34.542Z,97966.86
2022-10-01T13:55:03.114Z,97976.27
2022-10-01T13:57:35.142Z,97976.19
2022-10-01T14:00:13.874Z,97976.60
2022-10-01T14:02:45.720Z,97981.41
2022-10-01T14:05:36.023Z,97986.45
2022-10-01T14:08:17.001Z,97990.29
2022-10-01T14:11:21.881Z,97986.09
2022-10-01T14:14:10.953Z,97986.66
2022-10-01T14:16:46.455Z,97995.45
2022-10-01T14:19:20.223Z,98000.05
2022-10-01T14:22:02.476Z,98008.84
2022-10-01T14:25:00.132Z,98009.25
2022-10-01T14:27:44.282Z,98011.88
2022-10-01T14:30:18.729Z,98005.69
2022-10-01T14:33:10.383Z,98003.67
2022-10-01T14:35:59.696Z,98007.30
2022-10-01T14:38:28.931Z,98004.76
2022-10-01T14:41:16.375Z,98005.38
2022-10-01T14:43:46.324Z,98007.90
2022-10-01T14:46:17.474Z,98009.88
2022-10-01T14:48:58.897Z,98006.14
2022-10-01T14:51:31.443Z,98009.52
2022-10-01T14:54:01.143Z,98003.07
2022-10-01T14:56:30.139Z,98002.00
2022-10-01T14:59:03.506Z,97999.54
2022-10-01T15:01:33.108Z,97997.85
2022-10-01T15:04:02.096Z,97995.89
2022-10-01T15:06:33.097Z,97989.73
2022-10-01T15:09:15.718Z,97988.02
2022-10-01T15:11:46.763Z,97988.17
2022-10-01T15:14:24.241Z,97977.77
2022-10-01T15:16:53.422Z,97969.02
2022-10-01T15:19:23.617Z,97958.38
2022-10-01T15:22:01.259Z,97949.45
2022-10-01T15:24:47.370Z,97938.86
2022-10-01T15:27:19.851Z,97938.61
2022-10-01T15:29:56.350Z,97935.50
2022-10-01T15:32:28.414Z,97935.98
2022-10-01T15:35:01.988Z,97931.55
2022-10-01T15:37:35.538Z,97927.45
2022-10-01T15:40:36.858Z,97916.39
2022-10-01T15:43:08.398Z,97919.84
2022-10-01T15:45:37.437Z,97912.60
2022-10-01T15:48:06.689Z,97913.58
2022-10-01T15:50:39.494Z,97905.28
2022-10-01T15:53:18.981Z,97906.13
2022-10-01T15:55:57.656Z,97897.27
2022-10-01T15:58:32.630Z,97895.98
2022-10-01T16:01:16.028Z,97890.23
2022-10-01T16:04:01.731Z,97888.05
2022-10-01T16:06:54.312Z,97879.86
2022-10-01T16:09:31.143Z,97878.60
2022-10-01T16:12:04.674Z,97888.19
2022-10-01T16:14:47.651Z,97899.66
2022-10-01T16:17:19.375Z,97912.36
2022-10-01T16:19:53.646Z,97915.02
2022-10-01T16:22:32.789Z,97918.92
2022-10-01T16:25:25.740Z,97923.02
2022-10-01T16:27:59.278Z,97912.52
2022-10-01T16:30:29.957Z,97913.16
2022-10-01T16:33:02.914Z,97907.13
2022-10-01T16:35:36.048Z,97900.94
2022-10-01T16:38:08.866Z,97897.89
2022-10-01T16:40:40.498Z,97909.20
2022-10-01T16:43:19.057Z,97921.69
2022-10-01T16:45:47.767Z,97925.94
2022-10-01T16:48:19.941Z,97933.41
2022-10-01T16:50:49.486Z,97934.23
2022-10-01T16:53:18.729Z,97939.04
2022-10-01T16:55:47.872Z,97940.59
2022-10-01T16:58:17.138Z,97942.44
2022-10-01T17:00:46.416Z,97949.70
2022-10-01T17:03:37.235Z,97947.22
2022-10-01T17:06:26.204Z,97945.32
2022-10-01T17:09:13.311Z,97950.49
2022-10-01T17:12:01.356Z,97947.23
2022-10-01T17:14:47.069Z,97952.80
2022-10-01T17:17:34.313Z,97958.36
2022-10-01T17:20:29.615Z,97963.88
2022-10-01T17:23:18.957Z,97960.05
2022-10-01T17:26:18.113Z,97965.61
2022-10-01T17:29:03.328Z,97963.53
2022-10-01T17:32:01.938Z,97965.30
2022-10-01T17:34:54.915Z,97963.11
2022-10-01T17:37:36.071Z,97958.95
2022-10-01T17:40:11.185Z,97967.77
2022-10-01T17:42:44.670Z,97972.83
2022-10-01T17:45:14.623Z,97974.40
2022-10-01T17:47:45.199Z,97965.39
2022-10-01T17:50:15.351Z,97975.46
2022-10-01T17:52:47.190Z,97967.33
2022-10-01T17:55:17.641Z,97973.05
2022-10-01T17:57:46.457Z,97970.61
2022-10-01T18:00:14.937Z,97974.42
2022-10-01T18:02:44.817Z,97974.28
2022-10-01T18:05:15.207Z,97985.40
2022-10-01T18:07:43.678Z,97981.98
2022-10-01T18:10:13.689Z,97979.95
2022-10-01T18:12:43.067Z,97980.96
2022-10-01T18:15:12.921Z,97988.23
2022-10-01T18:17:43.758Z,97988.20
2022-10-01T18:20:23.376Z,97993.23
2022-10-01T18:22:52.362Z,97985.45
2022-10-01T18:25:21.485Z,97992.40
2022-10-01T18:27:53.076Z,97987.59
2022-10-01T18:30:21.893Z,97982.20
2022-10-01T18:32:57.243Z,97988.11
2022-10-01T18:35:33.520Z,97985.83
2022-10-01T18:38:09.996Z,97988.61
2022-10-01T18:40:44.065Z,97989.96
2022-10-01T18:43:24.378Z,97992.20
2022-10-01T18:46:11.726Z,97994.09
2022-10-01T18:48:57.054Z,97988.73
2022-10-01T18:51:51.605Z,97987.49
2022-10-01T18:54:37.246Z,97988.88
2022-10-01T18:57:40.177Z,97981.96
2022-10-01T19:00:35.614Z,97989.96
2022-10-01T19:03:41.376Z,97989.62
2022-10-01T19:06:29.648Z,97991.58
2022-10-01T19:09:13.820Z,97987.47
2022-10-01T19:11:47.700Z,97991.77
2022-10-01T19:14:42.525Z,97993.65
2022-10-01T19:17:29.609Z,97987.09
2022-10-01T19:20:32.925Z,97986.75
2022-10-01T19:23:29.369Z,98000.16
2022-10-01T19:26:53.122Z,98003.98
2022-10-01T19:29:41.813Z,98002.73
2022-10-01T19:32:16.779Z,98005.45
2022-10-01T19:35:04.031Z,98000.19
2022-10-01T19:37:40.003Z,97998.95
2022-10-01T19:40:17.817Z,98004.98
2022-10-01T19:42:54.733Z,98011.19
2022-10-01T19:45:33.604Z,98008.20
2022-10-01T19:48:20.248Z,98006.81
2022-10-01T19:50:55.171Z,98012.70
2022-10-01T19:53:29.857Z,98013.73
2022-10-01T19:56:02.560Z,98013.23
2022-10-01T19:58:33.293Z,98015.49
2022-10-01T20:01:04.088Z,98017.59
2022-10-01T20:03:39.863Z,98025.21
2022-10-01T20:06:37.691Z,98023.17
2022-10-01T20:09:21.368Z,98027.18
2022-10-01T20:12:13.700Z,98028.77
2022-10-01T20:15:12.331Z,98029.00
2022-10-01T20:18:30.626Z,98026.95
2022-10-01T20:21:27.428Z,98027.86
2022-10-01T20:24:33.377Z,98034.33
2022-10-01T20:27:20.572Z,98034.70
2022-10-01T20:30:17.132Z,98041.51
2022-10-01T20:33:03.614Z,98039.46
2022-10-01T20:35:48.386Z,98036.94
2022-10-01T20:38:25.201Z,98032.17
2022-10-01T20:40:59.747Z,98033.91
2022-10-01T20:43:38.947Z,98040.02
2022-10-01T20:46:14.745Z,98036.24
2022-10-01T20:48:48.211Z,98033.52
2022-10-01T20:51:32.883Z,98031.29
2022-10-01T20:54:13.192Z,98034.43
2022-10-01T20:56:46.788Z,98032.19
2022-10-01T20:59:22.534Z,98040.99
2022-10-01T21:02:05.303Z,98042.70
2022-10-01T21:04:46.266Z,98048.58
2022-10-01T21:07:21.440Z,98058.46
2022-10-01T21:09:53.277Z,98061.81
2022-10-01T21:12:27.743Z,98065.30
2022-10-01T21:14:57.744Z,98073.08
2022-10-01T21:17:40.404Z,98070.48
2022-10-01T21:20:40.365Z,98074.45
2022-10-01T21:23:25.672Z,98077.39
2022-10-01T21:26:03.717Z,98083.74
2022-10-01T21:28:35.756Z,98082.73
2022-10-01T21:31:38.613Z,98085.14
2022-10-01T21:34:33.808Z,98085.81
2022-10-01T21:37:10.452Z,98093.05
2022-10-01T21:40:18.266Z,98088.83
2022-10-01T21:43:24.277Z,98091.21
2022-10-01T21:46:15.963Z,98102.10
2022-10-01T21:49:10.755Z,98100.50
2022-10-01T21:51:58.797Z,98101.16
2022-10-01T21:54:30.499Z,98104.40
2022-10-01T21:57:33.473Z,98114.76
2022-10-01T22:00:18.666Z,98120.59
2022-10-01T22:03:05.389Z,98115.19
2022-10-01T22:06:09.125Z,98119.54
2022-10-01T22:09:15.190Z,98117.97
2022-10-01T22:11:51.921Z,98121.45
2022-10-01T22:14:22.456Z,98121.60
2022-10-01T22:16:57.897Z,98127.86
2022-10-01T22:19:30.300Z,98124.02
2022-10-01T22:22:23.580Z,98131.66
2022-10-01T22:24:53.710Z,98134.13
2022-10-01T22:27:51.767Z,98135.34
2022-10-01T22:30:23.129Z,98137.64
2022-10-01T22:33:04.035Z,98141.83
2022-10-01T22:36:09.905Z,98135.25
2022-10-01T22:38:47.894Z,98146.02
2022-10-01T22:41:32.772Z,98157.88
2022-10-01T22:44:13.317Z,98158.61
2022-10-01T22:47:20.645Z,98165.40
2022-10-01T22:50:14.696Z,98168.88
2022-10-01T22:52:52.746Z,98164.05
2022-10-01T22:55:21.679Z,98172.39
2022-10-01T22:57:52.997Z,98177.24
2022-10-01T23:00:21.742Z,98180.41
2022-10-01T23:03:29.848Z,98178.52
2022-10-01T23:06:01.629Z,98179.59
2022-10-01T23:09:06.389Z,98188.61
2022-10-01T23:11:54.948Z,98196.10
2022-10-01T23:14:55.421Z,98199.77
2022-10-01T23:17:35.668Z,98204.29
2022-10-01T23:20:18.951Z,98213.66
2022-10-01T23:23:02.671Z,98216.29
2022-10-01T23:25:52.827Z,98225.15
2022-10-01T23:28:48.585Z,98240.07
2022-10-01T23:31:36.401Z,98238.52
2022-10-01T23:34:47.697Z,98243.90
2022-10-01T23:37:35.155Z,98252.23
2022-10-01T23:40:08.590Z,98261.94
2022-10-01T23:42:58.637Z,98256.56
2022-10-01T23:45:40.399Z,98262.30
2022-10-01T23:48:19.084Z,98268.19
2022-10-01T23:51:11.963Z,98264.90
2022-10-01T23:53:59.598Z,98271.66
2022-10-01T23:56:50.582Z,98272.55
2022-10-01T23:59:42.165Z,98282.79
